Time;durP1;ratioP1;P1;durP2;ratioP2;P2;SDS_P1;SDS_P2;PMS_P1;PMS_P2;Temp;Humidity;BMP_temperature;BMP_pressure;BME280_temperature;BME280_humidity;BME280_pressure;Samples;Min_cycle;Max_cycle;Signal;HPM_P1;HPM_P2
2023/08/05 02:00:23;;;;;;;1.65;1.55;;;;;;;;;;4977737;28;20032;-75
2023/08/05 02:02:50;;;;;;;4.85;2.00;;;;;;;;;;4322566;33;20389;-77
2023/08/05 02:05:16;;;;;;;3.00;1.77;;;;;;;;;;4323299;33;20037;-76
2023/08/05 02:07:42;;;;;;;5.25;1.50;;;;;;;;;;4323571;33;20456;-77
2023/08/05 02:10:09;;;;;;;3.12;1.75;;;;;;;;;;4326454;33;20052;-76
2023/08/05 02:12:35;;;;;;;11.43;1.90;;;;;;;;;;4323557;33;20397;-76
2023/08/05 02:15:01;;;;;;;9.93;1.85;;;;;;;;;;4308646;33;20128;-75
2023/08/05 02:17:27;;;;;;;8.07;1.87;;;;;;;;;;4308587;33;20063;-77
2023/08/05 02:19:53;;;;;;;4.45;1.55;;;;;;;;;;4306630;33;20029;-76
2023/08/05 02:22:19;;;;;;;7.05;1.92;;;;;;;;;;4309071;33;20399;-76
2023/08/05 02:24:46;;;;;;;6.07;1.95;;;;;;;;;;4266520;33;20029;-77
2023/08/05 02:27:12;;;;;;;4.22;1.70;;;;;;;;;;4265910;33;20505;-76
2023/08/05 02:29:38;;;;;;;2.90;1.52;;;;;;;;;;4266589;33;20045;-76
2023/08/05 02:32:04;;;;;;;8.50;2.10;;;;;;;;;;4264340;33;20041;-76
2023/08/05 02:34:30;;;;;;;1.87;1.60;;;;;;;;;;4266365;33;21016;-75
2023/08/05 02:36:57;;;;;;;4.47;1.80;;;;;;;;;;4266038;33;20066;-76
2023/08/05 02:39:23;;;;;;;3.87;2.00;;;;;;;;;;4253065;33;20127;-76
2023/08/05 02:41:49;;;;;;;4.60;1.70;;;;;;;;;;4265366;33;20099;-76
2023/08/05 02:44:15;;;;;;;3.47;2.35;;;;;;;;;;4262877;33;20110;-77
2023/08/05 02:46:42;;;;;;;5.55;1.95;;;;;;;;;;4265612;33;20072;-77
2023/08/05 02:49:08;;;;;;;3.05;1.90;;;;;;;;;;4262848;33;20368;-75
2023/08/05 02:51:38;;;;;;;4.43;1.70;;;;;;;;;;4252787;33;20050;-76
2023/08/05 02:54:04;;;;;;;7.95;2.00;;;;;;;;;;4250995;33;20034;-76
2023/08/05 02:56:33;;;;;;;5.70;2.87;;;;;;;;;;4270816;33;20058;-75
2023/08/05 02:58:59;;;;;;;3.25;2.12;;;;;;;;;;4280153;33;20046;-76
2023/08/05 03:01:26;;;;;;;4.90;2.58;;;;;;;;;;4279561;33;20057;-75
2023/08/05 03:03:59;;;;;;;7.07;1.95;;;;;;;;;;4280263;33;20220;-75
2023/08/05 03:06:25;;;;;;;8.50;2.10;;;;;;;;;;4278666;33;20041;-76
2023/08/05 03:08:51;;;;;;;6.05;2.62;;;;;;;;;;4305558;33;20521;-76
2023/08/05 03:11:18;;;;;;;4.62;2.10;;;;;;;;;;4291385;33;20095;-75
2023/08/05 03:13:44;;;;;;;4.78;2.33;;;;;;;;;;4293306;33;20227;-76
2023/08/05 03:16:11;;;;;;;15.45;2.30;;;;;;;;;;4294193;33;20049;-76
2023/08/05 03:18:37;;;;;;;7.18;2.40;;;;;;;;;;4293772;33;20026;-76
2023/08/05 03:21:04;;;;;;;2.80;2.00;;;;;;;;;;4293764;33;20068;-76
2023/08/05 03:23:33;;;;;;;5.25;2.30;;;;;;;;;;4294793;33;20359;-76
2023/08/05 03:25:59;;;;;;;6.35;2.08;;;;;;;;;;4294521;33;20049;-75
2023/08/05 03:28:25;;;;;;;3.67;1.95;;;;;;;;;;4292793;33;20049;-75
2023/08/05 03:30:52;;;;;;;4.93;2.03;;;;;;;;;;4294794;33;20726;-75
2023/08/05 03:33:18;;;;;;;11.18;2.17;;;;;;;;;;4294451;33;20153;-75
2023/08/05 03:35:46;;;;;;;5.30;1.92;;;;;;;;;;4295268;33;20079;-75
2023/08/05 03:38:14;;;;;;;2.97;2.22;;;;;;;;;;4297140;33;20067;-76
2023/08/05 03:40:40;;;;;;;2.17;1.95;;;;;;;;;;4295859;33;20790;-76
2023/08/05 03:43:07;;;;;;;2.20;1.95;;;;;;;;;;4308588;33;20037;-76
2023/08/05 03:45:33;;;;;;;4.85;2.80;;;;;;;;;;4285592;33;20075;-77
2023/08/05 03:47:59;;;;;;;8.43;2.30;;;;;;;;;;4283032;33;20072;-75
2023/08/05 03:50:28;;;;;;;6.40;2.03;;;;;;;;;;4281016;33;20050;-76
2023/08/05 03:52:55;;;;;;;2.10;1.90;;;;;;;;;;4282564;33;20050;-76
2023/08/05 03:55:21;;;;;;;13.40;2.35;;;;;;;;;;4282852;33;20892;-76
2023/08/05 03:57:48;;;;;;;3.03;2.72;;;;;;;;;;4282571;33;20041;-77
2023/08/05 04:00:15;;;;;;;3.60;2.10;;;;;;;;;;4285974;33;20060;-78
2023/08/05 04:02:43;;;;;;;5.28;3.08;;;;;;;;;;4296619;33;20095;-77
2023/08/05 04:05:09;;;;;;;2.90;1.92;;;;;;;;;;4309392;33;20095;-76
2023/08/05 04:07:36;;;;;;;9.27;2.17;;;;;;;;;;4312117;33;20041;-75
2023/08/05 04:10:06;;;;;;;4.45;2.20;;;;;;;;;;4308877;33;20364;-76
2023/08/05 04:12:33;;;;;;;3.45;2.10;;;;;;;;;;4296762;33;20072;-74
2023/08/05 04:15:02;;;;;;;2.65;2.30;;;;;;;;;;4297575;33;20045;-76
2023/08/05 04:17:29;;;;;;;2.92;2.70;;;;;;;;;;4310569;33;20045;-76
2023/08/05 04:20:02;;;;;;;4.55;2.62;;;;;;;;;;4311956;33;20062;-77
2023/08/05 04:22:30;;;;;;;2.10;1.85;;;;;;;;;;4308743;33;20871;-77
2023/08/05 04:24:57;;;;;;;3.62;2.15;;;;;;;;;;4308834;33;20480;-77
2023/08/05 04:27:24;;;;;;;5.68;2.08;;;;;;;;;;4303183;33;20041;-77
2023/08/05 04:29:51;;;;;;;10.30;2.92;;;;;;;;;;4311478;33;20391;-77
2023/08/05 04:32:17;;;;;;;7.22;2.65;;;;;;;;;;4311333;33;20033;-77
2023/08/05 04:34:44;;;;;;;7.60;3.03;;;;;;;;;;4324852;33;20108;-77
2023/08/05 04:37:20;;;;;;;3.05;2.22;;;;;;;;;;4325386;33;20104;-80
2023/08/05 04:39:46;;;;;;;6.22;2.37;;;;;;;;;;4316419;33;20077;-80
2023/08/05 04:42:12;;;;;;;11.18;3.00;;;;;;;;;;4293904;33;20098;-79
2023/08/05 04:44:42;;;;;;;3.45;2.30;;;;;;;;;;4280865;33;20075;-78
2023/08/05 04:47:09;;;;;;;8.00;2.30;;;;;;;;;;4280753;33;20067;-78
2023/08/05 04:49:36;;;;;;;11.05;2.58;;;;;;;;;;4278554;33;20050;-78
2023/08/05 04:52:06;;;;;;;7.32;2.62;;;;;;;;;;4285904;33;20049;-78
2023/08/05 04:54:39;;;;;;;3.90;2.47;;;;;;;;;;4283519;33;20481;-78
2023/08/05 04:57:05;;;;;;;3.30;3.00;;;;;;;;;;4251792;33;20058;-78
2023/08/05 04:59:32;;;;;;;11.30;3.03;;;;;;;;;;4263184;33;20407;-79
2023/08/05 05:01:58;;;;;;;6.57;3.62;;;;;;;;;;4265455;33;20201;-77
2023/08/05 05:04:24;;;;;;;3.70;2.58;;;;;;;;;;4265098;33;20461;-79
2023/08/05 05:06:50;;;;;;;5.65;2.70;;;;;;;;;;4265015;33;20057;-78
2023/08/05 05:09:17;;;;;;;5.55;2.60;;;;;;;;;;4265603;33;20038;-78
2023/08/05 05:11:43;;;;;;;3.60;2.97;;;;;;;;;;4264532;33;20030;-78
2023/08/05 05:14:09;;;;;;;6.15;2.83;;;;;;;;;;4278460;33;20859;-78
2023/08/05 05:16:35;;;;;;;2.58;2.35;;;;;;;;;;4280688;33;20059;-78
2023/08/05 05:19:02;;;;;;;3.55;2.67;;;;;;;;;;4281324;33;20049;-77
2023/08/05 05:21:29;;;;;;;5.72;2.90;;;;;;;;;;4280196;33;20053;-77
2023/08/05 05:23:55;;;;;;;6.85;2.67;;;;;;;;;;4279531;33;20046;-78
2023/08/05 05:26:21;;;;;;;6.03;3.20;;;;;;;;;;4263890;33;20586;-77
2023/08/05 05:28:47;;;;;;;7.30;3.20;;;;;;;;;;4273275;33;20099;-77
2023/08/05 05:31:13;;;;;;;3.67;2.70;;;;;;;;;;4269976;33;20819;-76
2023/08/05 05:33:40;;;;;;;18.77;2.80;;;;;;;;;;4266454;33;20092;-79
2023/08/05 05:36:06;;;;;;;5.37;2.70;;;;;;;;;;4265569;33;20423;-78
2023/08/05 05:38:32;;;;;;;7.30;2.72;;;;;;;;;;4274686;33;20055;-79
2023/08/05 05:40:58;;;;;;;6.65;2.78;;;;;;;;;;4279223;33;20063;-77
2023/08/05 05:43:25;;;;;;;4.12;3.22;;;;;;;;;;4281013;33;20053;-76
2023/08/05 05:45:53;;;;;;;4.57;2.83;;;;;;;;;;4280514;33;20042;-77
2023/08/05 05:48:20;;;;;;;9.57;2.90;;;;;;;;;;4280625;33;20596;-78
2023/08/05 05:50:51;;;;;;;9.60;2.80;;;;;;;;;;4279116;33;20497;-77
2023/08/05 05:53:17;;;;;;;5.47;3.40;;;;;;;;;;4280595;33;20053;-77
2023/08/05 05:55:45;;;;;;;8.48;3.03;;;;;;;;;;4281182;33;20067;-77
2023/08/05 05:58:11;;;;;;;4.43;2.85;;;;;;;;;;4305887;33;20055;-76
2023/08/05 06:00:39;;;;;;;12.77;2.92;;;;;;;;;;4282954;33;20573;-77
2023/08/05 06:03:05;;;;;;;4.68;4.20;;;;;;;;;;4279563;33;20061;-76
2023/08/05 06:05:31;;;;;;;5.12;2.83;;;;;;;;;;4279843;33;20049;-78
2023/08/05 06:07:58;;;;;;;4.00;3.25;;;;;;;;;;4279114;33;20064;-78
2023/08/05 06:10:24;;;;;;;7.72;4.00;;;;;;;;;;4278337;33;20097;-78
2023/08/05 06:12:50;;;;;;;5.97;3.40;;;;;;;;;;4278221;33;20091;-81
2023/08/05 06:15:16;;;;;;;10.35;3.97;;;;;;;;;;4280553;33;20392;-78
2023/08/05 06:17:44;;;;;;;11.15;4.22;;;;;;;;;;4279766;33;20096;-76
2023/08/05 06:20:10;;;;;;;5.03;3.50;;;;;;;;;;4280976;33;20081;-76
2023/08/05 06:22:37;;;;;;;10.73;3.95;;;;;;;;;;4280528;33;20379;-78
2023/08/05 06:25:03;;;;;;;5.55;3.87;;;;;;;;;;4261254;33;20541;-81
2023/08/05 06:27:30;;;;;;;5.05;4.60;;;;;;;;;;4252893;33;20129;-78
2023/08/05 06:29:56;;;;;;;7.03;4.40;;;;;;;;;;4265439;33;20071;-76
2023/08/05 06:32:22;;;;;;;10.38;4.03;;;;;;;;;;4265120;33;20073;-78
2023/08/05 06:34:48;;;;;;;7.15;4.00;;;;;;;;;;4265772;33;20033;-77
2023/08/05 06:37:14;;;;;;;10.05;4.20;;;;;;;;;;4267341;33;20062;-78
2023/08/05 06:39:41;;;;;;;4.28;3.87;;;;;;;;;;4294797;33;20139;-77
2023/08/05 06:42:07;;;;;;;4.03;3.53;;;;;;;;;;4250320;33;20046;-77
2023/08/05 06:44:37;;;;;;;11.82;4.35;;;;;;;;;;4250392;33;20050;-77
2023/08/05 06:47:04;;;;;;;10.10;4.28;;;;;;;;;;4249262;33;20053;-78
2023/08/05 06:49:36;;;;;;;10.65;4.37;;;;;;;;;;4264772;33;20350;-78
2023/08/05 06:52:04;;;;;;;4.53;3.67;;;;;;;;;;4263506;33;20117;-78
2023/08/05 06:54:30;;;;;;;4.12;3.72;;;;;;;;;;4267756;33;20446;-78
2023/08/05 06:56:56;;;;;;;7.43;3.95;;;;;;;;;;4275957;33;20042;-80
2023/08/05 06:59:22;;;;;;;6.25;4.10;;;;;;;;;;4275266;33;20057;-78
2023/08/05 07:01:49;;;;;;;6.40;5.55;;;;;;;;;;4271688;33;20195;-77
2023/08/05 07:04:15;;;;;;;7.05;4.10;;;;;;;;;;4271830;33;20109;-77
2023/08/05 07:06:44;;;;;;;5.65;3.60;;;;;;;;;;4274298;33;20534;-79
2023/08/05 07:09:10;;;;;;;4.03;3.62;;;;;;;;;;4273945;33;20072;-78
2023/08/05 07:11:36;;;;;;;9.60;3.80;;;;;;;;;;4270073;33;20049;-78
2023/08/05 07:14:02;;;;;;;7.32;3.60;;;;;;;;;;4238635;33;20449;-78
2023/08/05 07:16:29;;;;;;;9.15;4.32;;;;;;;;;;4239255;33;20054;-78
2023/08/05 07:18:55;;;;;;;5.30;4.20;;;;;;;;;;4244209;33;20056;-77
2023/08/05 07:21:21;;;;;;;4.53;3.92;;;;;;;;;;4265598;33;20138;-78
2023/08/05 07:23:48;;;;;;;8.48;5.00;;;;;;;;;;4268037;33;20061;-77
2023/08/05 07:26:14;;;;;;;5.37;4.60;;;;;;;;;;4268539;33;20068;-76
2023/08/05 07:28:40;;;;;;;6.82;4.93;;;;;;;;;;4263485;33;20112;-81
2023/08/05 07:31:09;;;;;;;5.35;3.87;;;;;;;;;;4265284;33;20042;-80
2023/08/05 07:33:35;;;;;;;8.57;4.70;;;;;;;;;;4267131;33;20053;-77
2023/08/05 07:36:09;;;;;;;7.22;4.85;;;;;;;;;;4267486;33;20034;-77
2023/08/05 07:38:38;;;;;;;4.93;4.35;;;;;;;;;;4267501;33;20042;-77
2023/08/05 07:41:05;;;;;;;6.30;4.75;;;;;;;;;;4255034;33;20042;-77
2023/08/05 07:43:34;;;;;;;11.52;4.57;;;;;;;;;;4248145;33;20026;-77
2023/08/05 07:46:01;;;;;;;7.85;5.18;;;;;;;;;;4259110;33;20121;-77
2023/08/05 07:48:32;;;;;;;10.45;5.07;;;;;;;;;;4254703;33;20129;-77
2023/08/05 07:50:59;;;;;;;5.80;4.43;;;;;;;;;;4260214;33;20072;-79
2023/08/05 07:53:25;;;;;;;6.87;4.53;;;;;;;;;;4255249;33;20042;-79
2023/08/05 07:55:53;;;;;;;6.05;5.07;;;;;;;;;;4224377;33;20051;-79
2023/08/05 07:58:20;;;;;;;8.23;4.65;;;;;;;;;;4232564;33;20039;-79
2023/08/05 08:00:47;;;;;;;6.70;4.75;;;;;;;;;;4232944;33;20082;-78
2023/08/05 08:03:13;;;;;;;8.98;5.28;;;;;;;;;;4228857;33;20200;-81
2023/08/05 08:05:39;;;;;;;5.68;5.18;;;;;;;;;;4209989;34;21001;-78
2023/08/05 08:08:05;;;;;;;11.70;5.82;;;;;;;;;;4210417;34;20106;-78
2023/08/05 08:10:38;;;;;;;8.07;4.70;;;;;;;;;;4210151;34;20055;-79
2023/08/05 08:13:05;;;;;;;7.72;4.82;;;;;;;;;;4180200;34;20627;-80
2023/08/05 08:15:31;;;;;;;5.72;4.68;;;;;;;;;;4182875;34;20055;-77
2023/08/05 08:17:58;;;;;;;6.12;5.40;;;;;;;;;;4182123;34;20074;-78
2023/08/05 08:20:24;;;;;;;7.18;4.57;;;;;;;;;;4182381;34;20883;-79
2023/08/05 08:22:50;;;;;;;5.87;5.18;;;;;;;;;;4201505;33;20047;-78
2023/08/05 08:25:16;;;;;;;5.10;4.47;;;;;;;;;;4221921;33;20046;-79
2023/08/05 08:27:42;;;;;;;6.87;4.50;;;;;;;;;;4259230;33;20403;-78
2023/08/05 08:30:10;;;;;;;7.55;5.03;;;;;;;;;;4254937;33;20054;-77
2023/08/05 08:32:36;;;;;;;11.20;5.40;;;;;;;;;;4249599;33;20041;-80
2023/08/05 08:35:02;;;;;;;10.77;4.68;;;;;;;;;;4255515;33;20106;-81
2023/08/05 08:37:29;;;;;;;9.85;5.32;;;;;;;;;;4270524;33;20054;-75
2023/08/05 08:39:55;;;;;;;6.97;5.28;;;;;;;;;;4269354;33;20049;-75
2023/08/05 08:42:22;;;;;;;9.90;5.57;;;;;;;;;;4276274;33;20128;-76
2023/08/05 08:44:52;;;;;;;8.18;5.47;;;;;;;;;;4291748;33;20057;-80
2023/08/05 08:47:19;;;;;;;8.73;5.72;;;;;;;;;;4302994;33;20037;-78
2023/08/05 08:49:46;;;;;;;9.10;5.40;;;;;;;;;;4292746;33;20065;-77
2023/08/05 08:52:14;;;;;;;5.70;5.12;;;;;;;;;;4294739;33;20573;-76
2023/08/05 08:54:41;;;;;;;6.72;5.50;;;;;;;;;;4299794;33;20501;-77
2023/08/05 08:57:07;;;;;;;11.10;5.70;;;;;;;;;;4299953;33;20045;-77
2023/08/05 08:59:33;;;;;;;8.18;5.57;;;;;;;;;;4296643;33;20046;-77
2023/08/05 09:01:59;;;;;;;12.23;5.22;;;;;;;;;;4287025;33;20106;-77
2023/08/05 09:04:27;;;;;;;11.63;5.30;;;;;;;;;;4283814;33;20049;-76
2023/08/05 09:06:53;;;;;;;10.13;5.07;;;;;;;;;;4276883;33;20121;-75
2023/08/05 09:09:20;;;;;;;12.70;6.20;;;;;;;;;;4281423;33;20152;-76
2023/08/05 09:11:46;;;;;;;8.18;5.28;;;;;;;;;;4287302;33;20113;-76
2023/08/05 09:14:14;;;;;;;6.15;4.85;;;;;;;;;;4295539;33;20072;-75
2023/08/05 09:16:56;;;;;;;10.20;4.78;;;;;;;;;;4292859;33;20532;-78
2023/08/05 09:19:22;;;;;;;;;;;;;;;;;;4298628;33;20074;-76
2023/08/05 09:21:48;;;;;;;5.85;4.03;;;;;;;;;;4287284;33;19948;-76
2023/08/05 09:24:20;;;;;;;6.85;4.53;;;;;;;;;;4289423;33;20102;-76
2023/08/05 09:26:46;;;;;;;5.65;4.70;;;;;;;;;;4297168;33;20051;-75
2023/08/05 09:29:19;;;;;;;11.55;4.62;;;;;;;;;;4296149;33;20134;-76
2023/08/05 09:31:53;;;;;;;8.25;4.30;;;;;;;;;;4298337;33;20096;-76
2023/08/05 09:34:20;;;;;;;4.78;3.83;;;;;;;;;;4311103;33;20445;-76
2023/08/05 09:36:46;;;;;;;4.68;3.65;;;;;;;;;;4311848;33;20063;-76
2023/08/05 09:39:18;;;;;;;12.20;4.90;;;;;;;;;;4311065;33;20110;-78
2023/08/05 09:41:51;;;;;;;5.90;4.93;;;;;;;;;;4314227;33;20044;-76
2023/08/05 09:44:18;;;;;;;9.30;3.50;;;;;;;;;;4316741;33;20048;-78
2023/08/05 09:46:45;;;;;;;8.27;3.97;;;;;;;;;;4314963;33;20066;-76
2023/08/05 09:49:14;;;;;;;4.70;3.45;;;;;;;;;;4313605;33;20123;-77
2023/08/05 09:51:42;;;;;;;4.25;3.85;;;;;;;;;;4314532;33;20112;-76
2023/08/05 09:54:17;;;;;;;6.80;3.53;;;;;;;;;;4312125;33;20058;-76
2023/08/05 09:56:43;;;;;;;10.35;3.78;;;;;;;;;;4310769;33;20062;-77
2023/08/05 09:59:12;;;;;;;3.87;3.37;;;;;;;;;;4308855;33;20121;-75
2023/08/05 10:01:39;;;;;;;6.10;3.85;;;;;;;;;;4317222;33;20303;-75
2023/08/05 10:04:08;;;;;;;5.32;3.12;;;;;;;;;;4305474;33;20119;-78
2023/08/05 10:06:36;;;;;;;5.12;3.55;;;;;;;;;;4308170;33;20040;-79
2023/08/05 10:09:02;;;;;;;7.85;3.65;;;;;;;;;;4301861;33;20048;-79
2023/08/05 10:11:29;;;;;;;6.12;3.45;;;;;;;;;;4305198;33;20052;-78
2023/08/05 10:13:56;;;;;;;6.40;4.10;;;;;;;;;;4305526;33;20792;-78
2023/08/05 10:16:23;;;;;;;5.03;3.37;;;;;;;;;;4300257;33;20068;-79
2023/08/05 10:18:50;;;;;;;4.97;3.75;;;;;;;;;;4307413;33;20172;-79
2023/08/05 10:21:35;;;;;;;6.53;4.10;;;;;;;;;;4300466;33;20059;-78
2023/08/05 10:24:02;;;;;;;8.35;3.45;;;;;;;;;;4287560;33;20124;-77
2023/08/05 10:26:40;;;;;;;4.78;3.75;;;;;;;;;;4293120;33;20044;-79
2023/08/05 10:29:26;;;;;;;4.70;3.92;;;;;;;;;;4291964;33;20078;-78
2023/08/05 10:32:07;;;;;;;6.93;4.43;;;;;;;;;;4291144;33;20045;-78
2023/08/05 10:34:36;;;;;;;6.33;4.23;;;;;;;;;;4288904;33;20061;-77
2023/08/05 10:37:13;;;;;;;5.30;4.05;;;;;;;;;;4294020;33;20075;-76
2023/08/05 10:39:47;;;;;;;6.32;4.93;;;;;;;;;;4278588;33;20112;-77
2023/08/05 10:42:23;;;;;;;6.28;3.87;;;;;;;;;;4279652;33;20507;-77
2023/08/05 10:45:05;;;;;;;5.43;4.45;;;;;;;;;;4278208;33;20057;-77
2023/08/05 10:47:35;;;;;;;6.70;4.57;;;;;;;;;;4289013;33;20091;-78
2023/08/05 10:50:12;;;;;;;5.70;3.90;;;;;;;;;;4295786;33;20040;-77
2023/08/05 10:52:38;;;;;;;6.87;4.35;;;;;;;;;;4296990;33;20398;-78
2023/08/05 10:55:10;;;;;;;5.37;4.47;;;;;;;;;;4304040;33;20045;-78
2023/08/05 10:57:35;;;;;;;17.75;4.40;;;;;;;;;;4313984;33;20072;-78
2023/08/05 11:00:03;;;;;;;6.85;4.43;;;;;;;;;;4322403;33;20036;-78
2023/08/05 11:02:31;;;;;;;5.80;4.07;;;;;;;;;;4497367;27;20959;-78
2023/08/05 11:05:07;;;;;;;7.60;4.43;;;;;;;;;;4341261;33;20090;-78
2023/08/05 11:07:36;;;;;;;8.38;3.95;;;;;;;;;;4339179;33;20073;-77
2023/08/05 11:10:06;;;;;;;6.32;4.18;;;;;;;;;;4309354;33;20413;-78
2023/08/05 11:12:32;;;;;;;4.45;4.05;;;;;;;;;;4311103;33;20044;-79
2023/08/05 11:14:59;;;;;;;7.75;4.30;;;;;;;;;;4311349;33;20056;-78
2023/08/05 11:17:25;;;;;;;9.70;5.35;;;;;;;;;;4309962;33;20071;-78
2023/08/05 11:19:54;;;;;;;8.25;4.43;;;;;;;;;;4309158;33;20113;-78
2023/08/05 11:22:24;;;;;;;9.93;4.60;;;;;;;;;;4314039;33;20036;-78
2023/08/05 11:24:56;;;;;;;6.62;4.30;;;;;;;;;;4311463;33;20109;-78
2023/08/05 11:27:32;;;;;;;6.80;4.45;;;;;;;;;;4311170;33;20029;-80
2023/08/05 11:30:09;;;;;;;5.65;4.57;;;;;;;;;;4311310;33;20061;-79
2023/08/05 11:32:47;;;;;;;5.93;4.32;;;;;;;;;;4297476;33;20069;-77
2023/08/05 11:35:14;;;;;;;6.53;4.60;;;;;;;;;;4295978;33;20067;-77
2023/08/05 11:37:40;;;;;;;7.75;4.20;;;;;;;;;;4288169;33;20498;-80
2023/08/05 11:40:06;;;;;;;7.00;4.78;;;;;;;;;;4280899;33;20058;-80
2023/08/05 11:42:32;;;;;;;8.82;4.82;;;;;;;;;;4280513;33;20072;-79
2023/08/05 11:44:59;;;;;;;9.95;4.53;;;;;;;;;;4278654;33;20131;-79
2023/08/05 11:47:25;;;;;;;10.20;4.75;;;;;;;;;;4286676;33;20447;-79
2023/08/05 11:49:55;;;;;;;5.07;4.00;;;;;;;;;;4298016;33;20121;-79
2023/08/05 11:52:21;;;;;;;4.47;4.07;;;;;;;;;;4312128;33;20057;-77
2023/08/05 11:54:58;;;;;;;4.75;4.15;;;;;;;;;;4310925;33;20053;-79
2023/08/05 11:57:24;;;;;;;8.82;3.53;;;;;;;;;;4290166;33;20045;-79
2023/08/05 11:59:51;;;;;;;7.03;4.47;;;;;;;;;;4311115;33;20067;-79
2023/08/05 12:02:18;;;;;;;7.00;3.80;;;;;;;;;;4312630;33;20071;-79
2023/08/05 12:04:49;;;;;;;3.47;3.15;;;;;;;;;;4323224;33;20044;-80
2023/08/05 12:07:17;;;;;;;4.15;3.05;;;;;;;;;;4321097;33;20448;-78
2023/08/05 12:09:44;;;;;;;4.10;3.08;;;;;;;;;;4321934;33;20071;-79
2023/08/05 12:12:20;;;;;;;7.28;3.65;;;;;;;;;;4323805;33;20036;-77
2023/08/05 12:14:46;;;;;;;8.73;3.05;;;;;;;;;;4291052;33;20061;-78
2023/08/05 12:17:12;;;;;;;11.32;2.90;;;;;;;;;;4287778;33;20053;-78
2023/08/05 12:19:41;;;;;;;5.53;3.20;;;;;;;;;;4291557;33;20065;-79
2023/08/05 12:22:07;;;;;;;7.40;3.40;;;;;;;;;;4289290;33;20562;-80
2023/08/05 12:24:33;;;;;;;3.47;2.58;;;;;;;;;;4291962;33;20057;-78
2023/08/05 12:26:59;;;;;;;7.80;3.17;;;;;;;;;;4291380;33;20056;-77
2023/08/05 12:29:25;;;;;;;10.15;3.78;;;;;;;;;;4292643;33;20165;-77
2023/08/05 12:31:52;;;;;;;4.03;2.58;;;;;;;;;;4292623;33;20077;-78
2023/08/05 12:34:18;;;;;;;2.22;2.03;;;;;;;;;;4292770;33;20053;-77
2023/08/05 12:36:45;;;;;;;2.90;2.35;;;;;;;;;;4282575;33;20316;-77
2023/08/05 12:39:11;;;;;;;8.02;2.45;;;;;;;;;;4293463;33;20101;-76
2023/08/05 12:41:37;;;;;;;3.85;3.03;;;;;;;;;;4288697;33;20042;-76
2023/08/05 12:44:04;;;;;;;2.45;2.25;;;;;;;;;;4275232;33;20380;-77
2023/08/05 12:46:30;;;;;;;3.35;2.58;;;;;;;;;;4276539;33;20038;-77
2023/08/05 12:48:56;;;;;;;3.12;2.00;;;;;;;;;;4274786;33;20057;-76
2023/08/05 12:51:22;;;;;;;5.05;2.85;;;;;;;;;;4271937;33;20191;-77
2023/08/05 12:53:48;;;;;;;2.92;1.95;;;;;;;;;;4287520;33;20091;-77
2023/08/05 12:56:14;;;;;;;2.80;2.35;;;;;;;;;;4293819;33;20109;-76
2023/08/05 12:58:40;;;;;;;4.32;2.03;;;;;;;;;;4291939;33;20045;-78
2023/08/05 13:01:07;;;;;;;3.47;2.03;;;;;;;;;;4293900;33;20102;-76
2023/08/05 13:03:33;;;;;;;4.37;2.90;;;;;;;;;;4291104;33;20868;-76
2023/08/05 13:05:59;;;;;;;3.42;2.15;;;;;;;;;;4292959;33;20143;-76
2023/08/05 13:08:33;;;;;;;2.28;2.08;;;;;;;;;;4316575;33;20078;-76
2023/08/05 13:10:59;;;;;;;3.28;2.08;;;;;;;;;;4321239;33;20041;-76
2023/08/05 13:13:26;;;;;;;2.25;2.00;;;;;;;;;;4311931;33;20049;-78
2023/08/05 13:15:52;;;;;;;3.10;1.75;;;;;;;;;;4324546;33;20075;-78
2023/08/05 13:18:18;;;;;;;6.50;2.58;;;;;;;;;;4320817;33;20425;-76
2023/08/05 13:20:44;;;;;;;5.03;2.15;;;;;;;;;;4320927;33;20070;-77
2023/08/05 13:23:11;;;;;;;2.20;2.00;;;;;;;;;;4323074;33;20206;-77
2023/08/05 13:25:44;;;;;;;2.50;2.30;;;;;;;;;;4306725;33;20052;-75
2023/08/05 13:28:11;;;;;;;2.22;1.75;;;;;;;;;;4309418;33;20098;-76
2023/08/05 13:30:37;;;;;;;3.12;1.77;;;;;;;;;;4309236;33;20078;-75
2023/08/05 13:33:04;;;;;;;1.95;1.50;;;;;;;;;;4308875;33;20096;-76
2023/08/05 13:35:30;;;;;;;2.70;1.65;;;;;;;;;;4310584;33;20048;-75
2023/08/05 13:37:56;;;;;;;4.18;2.20;;;;;;;;;;4311901;33;20064;-75
2023/08/05 13:40:22;;;;;;;6.78;2.85;;;;;;;;;;4279756;33;20505;-77
2023/08/05 13:42:49;;;;;;;2.85;2.65;;;;;;;;;;4292467;33;20091;-77
2023/08/05 13:45:15;;;;;;;2.85;1.87;;;;;;;;;;4292838;33;20085;-77
2023/08/05 13:47:41;;;;;;;4.12;2.12;;;;;;;;;;4293837;33;20552;-75
2023/08/05 13:50:08;;;;;;;2.62;2.10;;;;;;;;;;4294738;33;20045;-75
2023/08/05 13:52:34;;;;;;;2.37;2.05;;;;;;;;;;4295050;33;20474;-76
2023/08/05 13:55:00;;;;;;;5.70;2.10;;;;;;;;;;4285952;33;20037;-77
2023/08/05 13:57:27;;;;;;;4.50;2.05;;;;;;;;;;4291655;33;20499;-78
2023/08/05 13:59:53;;;;;;;3.42;1.77;;;;;;;;;;4293835;33;20047;-77
2023/08/05 14:02:20;;;;;;;5.82;2.22;;;;;;;;;;4292849;33;20201;-74
2023/08/05 14:04:46;;;;;;;3.28;1.67;;;;;;;;;;4292661;33;20037;-77
2023/08/05 14:07:12;;;;;;;2.15;1.80;;;;;;;;;;4285865;33;20071;-77
2023/08/05 14:09:38;;;;;;;2.28;1.83;;;;;;;;;;4284326;33;20494;-75
2023/08/05 14:12:05;;;;;;;3.60;2.85;;;;;;;;;;4315185;33;20048;-76
2023/08/05 14:14:31;;;;;;;4.10;3.35;;;;;;;;;;4312799;33;20046;-76
2023/08/05 14:16:57;;;;;;;6.90;2.58;;;;;;;;;;4311477;33;20410;-75
2023/08/05 14:19:23;;;;;;;4.57;2.28;;;;;;;;;;4307143;33;20088;-76
2023/08/05 14:21:50;;;;;;;3.60;2.20;;;;;;;;;;4307459;33;20052;-76
2023/08/05 14:24:16;;;;;;;5.18;2.72;;;;;;;;;;4310360;33;20849;-76
2023/08/05 14:26:42;;;;;;;5.72;2.72;;;;;;;;;;4311440;33;20072;-76
2023/08/05 14:29:08;;;;;;;2.67;2.47;;;;;;;;;;4310273;33;20044;-76
2023/08/05 14:31:35;;;;;;;4.82;2.45;;;;;;;;;;4308651;33;20415;-77
2023/08/05 14:34:01;;;;;;;8.52;2.30;;;;;;;;;;4309636;33;20121;-75
2023/08/05 14:36:28;;;;;;;3.22;2.87;;;;;;;;;;4290319;33;20353;-78
2023/08/05 14:38:54;;;;;;;4.40;3.00;;;;;;;;;;4292126;33;20097;-76
2023/08/05 14:41:20;;;;;;;4.10;3.80;;;;;;;;;;4290270;33;20434;-76
2023/08/05 14:43:46;;;;;;;3.58;3.05;;;;;;;;;;4289788;33;20147;-77
2023/08/05 14:46:12;;;;;;;3.58;2.92;;;;;;;;;;4292742;33;20455;-76
2023/08/05 14:48:38;;;;;;;5.25;2.90;;;;;;;;;;4292647;33;20135;-76
2023/08/05 14:51:05;;;;;;;7.57;3.30;;;;;;;;;;4293179;33;20049;-76
2023/08/05 14:53:31;;;;;;;3.80;3.40;;;;;;;;;;4293462;33;20058;-76
2023/08/05 14:56:00;;;;;;;2.83;2.62;;;;;;;;;;4275447;33;20071;-77
2023/08/05 14:58:26;;;;;;;3.40;2.83;;;;;;;;;;4277776;33;20033;-76
2023/08/05 15:00:52;;;;;;;3.53;3.10;;;;;;;;;;4278316;33;20071;-77
2023/08/05 15:03:19;;;;;;;8.18;2.92;;;;;;;;;;4276329;33;20105;-77
2023/08/05 15:05:45;;;;;;;3.10;2.17;;;;;;;;;;4275714;33;20054;-76
2023/08/05 15:08:11;;;;;;;3.30;2.35;;;;;;;;;;4275283;33;20073;-77
2023/08/05 15:10:37;;;;;;;7.90;5.07;;;;;;;;;;4271318;33;20050;-79
2023/08/05 15:13:03;;;;;;;3.20;2.65;;;;;;;;;;4280663;33;20903;-76
2023/08/05 15:15:30;;;;;;;3.78;2.40;;;;;;;;;;4278780;33;20070;-76
2023/08/05 15:17:56;;;;;;;5.95;3.50;;;;;;;;;;4276524;33;20837;-75
2023/08/05 15:20:22;;;;;;;4.82;2.65;;;;;;;;;;4279092;33;20061;-76
2023/08/05 15:22:48;;;;;;;3.20;2.62;;;;;;;;;;4281852;33;20091;-76
2023/08/05 15:25:15;;;;;;;8.02;3.12;;;;;;;;;;4279046;33;20468;-75
2023/08/05 15:27:41;;;;;;;7.20;2.90;;;;;;;;;;4278145;33;20041;-76
2023/08/05 15:30:10;;;;;;;3.42;2.90;;;;;;;;;;4282864;33;20992;-75
2023/08/05 15:32:37;;;;;;;4.80;3.08;;;;;;;;;;4284925;33;20508;-76
2023/08/05 15:35:04;;;;;;;3.55;3.28;;;;;;;;;;4265825;33;20067;-77
2023/08/05 15:37:30;;;;;;;7.12;2.70;;;;;;;;;;4253497;33;20050;-78
2023/08/05 15:39:57;;;;;;;4.18;3.67;;;;;;;;;;4260314;33;20054;-79
2023/08/05 15:42:23;;;;;;;5.22;3.60;;;;;;;;;;4266486;33;20495;-79
2023/08/05 15:44:49;;;;;;;5.43;3.20;;;;;;;;;;4266368;33;20072;-77
2023/08/05 15:47:16;;;;;;;10.13;4.45;;;;;;;;;;4255995;33;20050;-77
2023/08/05 15:49:42;;;;;;;3.97;3.67;;;;;;;;;;4262113;33;20089;-81
2023/08/05 15:52:08;;;;;;;4.62;3.28;;;;;;;;;;4254806;33;20042;-79
2023/08/05 15:54:35;;;;;;;3.83;3.17;;;;;;;;;;4249415;33;20042;-78
2023/08/05 15:57:03;;;;;;;5.60;3.40;;;;;;;;;;4253346;33;20022;-78
2023/08/05 15:59:29;;;;;;;4.53;3.53;;;;;;;;;;4257467;33;20054;-76
2023/08/05 16:01:56;;;;;;;6.18;3.70;;;;;;;;;;4255798;33;20064;-76
2023/08/05 16:04:22;;;;;;;4.32;3.87;;;;;;;;;;4256777;33;20086;-77
2023/08/05 16:06:50;;;;;;;5.85;3.60;;;;;;;;;;4264551;33;20187;-76
2023/08/05 16:09:17;;;;;;;7.43;3.80;;;;;;;;;;4298593;33;20084;-75
2023/08/05 16:11:43;;;;;;;4.03;3.72;;;;;;;;;;4305227;33;20291;-77
2023/08/05 16:14:09;;;;;;;5.32;3.83;;;;;;;;;;4273546;33;20085;-77
2023/08/05 16:16:36;;;;;;;6.18;4.32;;;;;;;;;;4288825;33;20037;-77
2023/08/05 16:19:03;;;;;;;7.78;3.95;;;;;;;;;;4285382;33;20063;-76
2023/08/05 16:21:29;;;;;;;5.25;4.50;;;;;;;;;;4288448;33;20060;-76
2023/08/05 16:23:57;;;;;;;8.45;3.60;;;;;;;;;;4284530;33;20049;-79
2023/08/05 16:26:24;;;;;;;5.68;4.47;;;;;;;;;;4284542;33;20071;-76
2023/08/05 16:28:50;;;;;;;4.90;4.32;;;;;;;;;;4281131;33;20053;-78
2023/08/05 16:31:17;;;;;;;12.50;4.35;;;;;;;;;;4280503;33;20575;-77
2023/08/05 16:33:44;;;;;;;4.37;3.62;;;;;;;;;;4284412;33;20071;-75
2023/08/05 16:36:11;;;;;;;4.22;3.83;;;;;;;;;;4300626;33;20048;-76
2023/08/05 16:38:37;;;;;;;4.65;4.25;;;;;;;;;;4299858;33;20057;-75
2023/08/05 16:41:03;;;;;;;5.43;4.62;;;;;;;;;;4267472;33;20067;-76
2023/08/05 16:43:30;;;;;;;4.12;3.67;;;;;;;;;;4273489;33;20452;-76